Cape Sakura — 7JHZ — position and weather

sailwx.info

Track history (hours):
 
Tides and Currents Weather Stations Pressure Air Temp Water Temp Dewpoint Dewpoint Depression Visibility Wind Speed Wind Dir Waves Ship Positions

Cape Sakura

Last reported at 2017-Dec-14 15:43 UTC. Time now 2017-Dec-17 21:42 UTC.
Position N 21°58' E 121°52'.

Length 292 m; draft 8.7 m.

Type: Cargo ship. MMSI: 432786000.

Date/timePositionNaut miles runAvg speedWind from/ knotsBaromVisibWave heightAir tempDewpointWater temp
2017-Dec-14 15:43N 21°58' E 121°52'6311.5
2017-Dec-14 10:12N 23°01' E 122°04'1811.2
2017-Dec-14 08:34N 23°18' E 122°10'110.6
2017-Dec-14 08:27N 23°19' E 122°10'1711.1
2017-Dec-14 06:54N 23°36' E 122°15'511.5
2017-Dec-14 06:30N 23°41' E 122°16'611.5
2017-Dec-14 06:00N 23°46' E 122°17'611.4
2017-Dec-14 05:30N 23°52' E 122°18'511.0
2017-Dec-14 05:00N 23°57' E 122°20'510.5
2017-Dec-14 04:30N 24°02' E 122°21'510.5
2017-Dec-14 04:00N 24°07' E 122°23'510.5
2017-Dec-14 03:30N 24°12' E 122°24'510.5
2017-Dec-14 03:00N 24°17' E 122°25'510.4
2017-Dec-14 02:30N 24°23' E 122°26'510.9
2017-Dec-14 02:00N 24°28' E 122°27'611.7
2017-Dec-14 01:30N 24°34' E 122°28'611.6
2017-Dec-14 01:00N 24°39' E 122°30'611.5
2017-Dec-14 00:30N 24°45' E 122°31'510.9
2017-Dec-14 00:00N 24°50' E 122°32'510.7
2017-Dec-13 23:30N 24°55' E 122°33'611.2
2017-Dec-13 23:00N 25°01' E 122°34'611.7
2017-Dec-13 22:30N 25°07' E 122°34'611.6
2017-Dec-13 22:00N 25°13' E 122°35'612.2
2017-Dec-13 21:30N 25°19' E 122°36'36011.2
2017-Dec-12 13:18N 31°16' E 121°51'412.7
2017-Dec-12 12:56N 31°18' E 121°46'510.3
2017-Dec-12 12:29N 31°20' E 121°41'4 9.2
2017-Dec-12 12:00N 31°22' E 121°37'5 9.0
2017-Dec-12 11:30N 31°24' E 121°32'4 7.3
2017-Dec-12 11:00N 31°27' E 121°29'4 8.3
2017-Dec-12 10:30N 31°30' E 121°25'4 6.8
2017-Dec-12 09:59N 31°32' E 121°22'4 8.5
2017-Dec-12 09:30N 31°34' E 121°18'1 1.8
2017-Dec-12 09:00N 31°35' E 121°19'0 0.2
2017-Dec-12 08:27N 31°35' E 121°19'0 0.1
2017-Dec-12 07:51N 31°35' E 121°19'0 0.0
2017-Dec-12 07:21N 31°35' E 121°19'0 0.3
2017-Dec-12 07:00N 31°35' E 121°19'2 4.0
2017-Dec-12 06:31N 31°36' E 121°17'612.5
2017-Dec-12 06:01N 31°40' E 121°12'2 3.5
2017-Dec-12 05:28N 31°41' E 121°10'0 0.0
2017-Dec-12 04:16N 31°41' E 121°10'0 0.0
2017-Dec-12 03:58N 31°41' E 121°10'0 0.0
2017-Dec-12 03:28N 31°41' E 121°10'0 0.0
2017-Dec-12 02:46N 31°41' E 121°10'0 0.0
2017-Dec-12 02:25N 31°41' E 121°10'0 0.0
2017-Dec-12 01:58N 31°41' E 121°10'0 0.0
2017-Dec-12 01:22N 31°41' E 121°10'0 0.0
2017-Dec-12 00:40N 31°41' E 121°10'0 0.0
2017-Dec-12 00:28N 31°41' E 121°10'0 0.0
2017-Dec-11 23:58N 31°41' E 121°10'0 0.0
2017-Dec-11 23:22N 31°41' E 121°10'0 0.0
2017-Dec-11 22:58N 31°41' E 121°10'0 0.0
2017-Dec-11 22:22N 31°41' E 121°10'0 0.0
2017-Dec-11 21:55N 31°41' E 121°10'0 0.0
2017-Dec-11 21:28N 31°41' E 121°10'0 0.0
2017-Dec-11 20:58N 31°41' E 121°10'0 0.0
2017-Dec-11 20:28N 31°41' E 121°10'0 0.0
2017-Dec-11 19:40N 31°41' E 121°10'0 0.0
2017-Dec-11 19:28N 31°41' E 121°10'0 0.0
2017-Dec-11 18:55N 31°41' E 121°10'0 0.0
2017-Dec-11 18:28N 31°41' E 121°10'0 0.0
2017-Dec-11 17:58N 31°41' E 121°10'0 0.0
2017-Dec-11 17:25N 31°41' E 121°10'0 0.1
2017-Dec-11 16:52N 31°41' E 121°10'0 0.1
2017-Dec-11 16:16N 31°41' E 121°10'0 0.0
2017-Dec-11 15:58N 31°41' E 121°10'0 0.0
2017-Dec-11 15:22N 31°41' E 121°10'0 0.0
2017-Dec-11 14:46N 31°41' E 121°10'0 0.0
2017-Dec-11 14:28N 31°41' E 121°10'0 0.0
2017-Dec-11 13:58N 31°41' E 121°10'0 0.0
2017-Dec-11 13:28N 31°41' E 121°10'0 0.0
2017-Dec-11 12:58N 31°41' E 121°10'0 0.0
2017-Dec-11 11:28N 31°41' E 121°10'0 0.0
2017-Dec-11 10:46N 31°41' E 121°10'0 0.0
2017-Dec-11 10:16N 31°41' E 121°10'0 0.0
2017-Dec-11 09:58N 31°41' E 121°10'0 0.0
2017-Dec-11 09:22N 31°41' E 121°10'0 0.1
2017-Dec-11 08:28N 31°41' E 121°10'0 0.1
2017-Dec-11 07:43N 31°41' E 121°10'0 0.0
2017-Dec-11 07:22N 31°41' E 121°10'0 0.0
2017-Dec-11 06:22N 31°41' E 121°10'0 0.0
2017-Dec-11 04:52N 31°41' E 121°10'0 0.0
2017-Dec-11 04:28N 31°41' E 121°10'0 0.0
2017-Dec-11 03:58N 31°41' E 121°10'0 0.0
2017-Dec-11 03:22N 31°41' E 121°10'0 0.0
2017-Dec-11 02:52N 31°41' E 121°10'0 0.0
2017-Dec-11 02:28N 31°41' E 121°10'0 0.0
2017-Dec-11 01:46N 31°41' E 121°10'0 0.0
2017-Dec-11 01:28N 31°41' E 121°10'0 0.0
2017-Dec-11 00:34N 31°41' E 121°10'0 0.1
2017-Dec-11 00:28N 31°41' E 121°10'0 0.0
2017-Dec-10 23:46N 31°41' E 121°10'0 0.0
2017-Dec-10 23:28N 31°41' E 121°10'0 0.0
2017-Dec-10 22:52N 31°41' E 121°10'0 0.0
2017-Dec-10 22:28N 31°41' E 121°10'0 0.0
2017-Dec-10 21:40N 31°41' E 121°10'0 0.0
2017-Dec-10 21:22N 31°41' E 121°10'0 0.0
2017-Dec-10 20:40N 31°41' E 121°10'0 0.3
2017-Dec-10 20:28N 31°41' E 121°10'0 0.0
2017-Dec-10 19:46N 31°41' E 121°10'0 0.2
2017-Dec-10 19:28N 31°41' E 121°10'0 0.0
2017-Dec-10 18:58N 31°41' E 121°10'0 0.0
2017-Dec-10 18:22N 31°41' E 121°10'0 0.0
2017-Dec-10 17:40N 31°41' E 121°10'0 0.0
2017-Dec-10 16:16N 31°41' E 121°10'0 0.0
2017-Dec-10 15:52N 31°41' E 121°10'0 0.0
2017-Dec-10 15:28N 31°41' E 121°10'0 0.0
2017-Dec-10 14:10N 31°41' E 121°10'0 0.0
2017-Dec-10 13:10N 31°41' E 121°10'0 0.0
2017-Dec-10 12:38N 31°41' E 121°10'0 0.1
2017-Dec-10 12:29N 31°41' E 121°10'1 2.5
2017-Dec-10 11:57N 31°41' E 121°11'4 9.6
2017-Dec-10 11:30N 31°38' E 121°15'511.0
2017-Dec-10 11:00N 31°34' E 121°19'611.2
2017-Dec-10 10:29N 31°30' E 121°25'510.8
2017-Dec-10 09:59N 31°26' E 121°29'3 6.1
2017-Dec-10 09:30N 31°25' E 121°32'3 6.6
2017-Dec-10 09:00N 31°23' E 121°35'1710.0
2017-Dec-10 07:16N 31°16' E 121°54'310.8
2017-Dec-10 07:00N 31°15' E 121°57'510.7
2017-Dec-10 06:30N 31°14' E 122°03'510.4
2017-Dec-10 06:00N 31°12' E 122°09'510.5
2017-Dec-10 05:30N 31°09' E 122°14'510.2
2017-Dec-10 05:00N 31°06' E 122°19'510.2
2017-Dec-10 04:30N 31°06' E 122°25'4 6.4
2017-Dec-10 03:54N 31°07' E 122°29'2 5.2
2017-Dec-10 03:29N 31°08' E 122°31'  
Track history (hours):
 
Tides and Currents Weather Stations Pressure Air Temp Water Temp Dewpoint Dewpoint Depression Visibility Wind Speed Wind Dir Waves Ship Positions

Cape Sakura

Last reported at 2017-Dec-14 15:43 UTC. Time now 2017-Dec-17 21:42 UTC.
Position N 21°58' E 121°52'.

Length 292 m; draft 8.7 m.

Type: Cargo ship. MMSI: 432786000.

Date/timePositionNaut miles runAvg speedWind from/ knotsBaromVisibWave heightAir tempDewpointWater temp
2017-Dec-14 15:43N 21°58' E 121°52'6311.5
2017-Dec-14 10:12N 23°01' E 122°04'1811.2
2017-Dec-14 08:34N 23°18' E 122°10'110.6
2017-Dec-14 08:27N 23°19' E 122°10'1711.1
2017-Dec-14 06:54N 23°36' E 122°15'511.5
2017-Dec-14 06:30N 23°41' E 122°16'611.5
2017-Dec-14 06:00N 23°46' E 122°17'611.4
2017-Dec-14 05:30N 23°52' E 122°18'511.0
2017-Dec-14 05:00N 23°57' E 122°20'510.5
2017-Dec-14 04:30N 24°02' E 122°21'510.5
2017-Dec-14 04:00N 24°07' E 122°23'510.5
2017-Dec-14 03:30N 24°12' E 122°24'510.5
2017-Dec-14 03:00N 24°17' E 122°25'510.4
2017-Dec-14 02:30N 24°23' E 122°26'510.9
2017-Dec-14 02:00N 24°28' E 122°27'611.7
2017-Dec-14 01:30N 24°34' E 122°28'611.6
2017-Dec-14 01:00N 24°39' E 122°30'611.5
2017-Dec-14 00:30N 24°45' E 122°31'510.9
2017-Dec-14 00:00N 24°50' E 122°32'510.7
2017-Dec-13 23:30N 24°55' E 122°33'611.2
2017-Dec-13 23:00N 25°01' E 122°34'611.7
2017-Dec-13 22:30N 25°07' E 122°34'611.6
2017-Dec-13 22:00N 25°13' E 122°35'612.2
2017-Dec-13 21:30N 25°19' E 122°36'36011.2
2017-Dec-12 13:18N 31°16' E 121°51'412.7
2017-Dec-12 12:56N 31°18' E 121°46'510.3
2017-Dec-12 12:29N 31°20' E 121°41'4 9.2
2017-Dec-12 12:00N 31°22' E 121°37'5 9.0
2017-Dec-12 11:30N 31°24' E 121°32'4 7.3
2017-Dec-12 11:00N 31°27' E 121°29'4 8.3
2017-Dec-12 10:30N 31°30' E 121°25'4 6.8
2017-Dec-12 09:59N 31°32' E 121°22'4 8.5
2017-Dec-12 09:30N 31°34' E 121°18'1 1.8
2017-Dec-12 09:00N 31°35' E 121°19'0 0.2
2017-Dec-12 08:27N 31°35' E 121°19'0 0.1
2017-Dec-12 07:51N 31°35' E 121°19'0 0.0
2017-Dec-12 07:21N 31°35' E 121°19'0 0.3
2017-Dec-12 07:00N 31°35' E 121°19'2 4.0
2017-Dec-12 06:31N 31°36' E 121°17'612.5
2017-Dec-12 06:01N 31°40' E 121°12'2 3.5
2017-Dec-12 05:28N 31°41' E 121°10'0 0.0
2017-Dec-12 04:16N 31°41' E 121°10'0 0.0
2017-Dec-12 03:58N 31°41' E 121°10'0 0.0
2017-Dec-12 03:28N 31°41' E 121°10'0 0.0
2017-Dec-12 02:46N 31°41' E 121°10'0 0.0
2017-Dec-12 02:25N 31°41' E 121°10'0 0.0
2017-Dec-12 01:58N 31°41' E 121°10'0 0.0
2017-Dec-12 01:22N 31°41' E 121°10'0 0.0
2017-Dec-12 00:40N 31°41' E 121°10'0 0.0
2017-Dec-12 00:28N 31°41' E 121°10'0 0.0
2017-Dec-11 23:58N 31°41' E 121°10'0 0.0
2017-Dec-11 23:22N 31°41' E 121°10'0 0.0
2017-Dec-11 22:58N 31°41' E 121°10'0 0.0
2017-Dec-11 22:22N 31°41' E 121°10'0 0.0
2017-Dec-11 21:55N 31°41' E 121°10'0 0.0
2017-Dec-11 21:28N 31°41' E 121°10'0 0.0
2017-Dec-11 20:58N 31°41' E 121°10'0 0.0
2017-Dec-11 20:28N 31°41' E 121°10'0 0.0
2017-Dec-11 19:40N 31°41' E 121°10'0 0.0
2017-Dec-11 19:28N 31°41' E 121°10'0 0.0
2017-Dec-11 18:55N 31°41' E 121°10'0 0.0
2017-Dec-11 18:28N 31°41' E 121°10'0 0.0
2017-Dec-11 17:58N 31°41' E 121°10'0 0.0
2017-Dec-11 17:25N 31°41' E 121°10'0 0.1
2017-Dec-11 16:52N 31°41' E 121°10'0 0.1
2017-Dec-11 16:16N 31°41' E 121°10'0 0.0
2017-Dec-11 15:58N 31°41' E 121°10'0 0.0
2017-Dec-11 15:22N 31°41' E 121°10'0 0.0
2017-Dec-11 14:46N 31°41' E 121°10'0 0.0
2017-Dec-11 14:28N 31°41' E 121°10'0 0.0
2017-Dec-11 13:58N 31°41' E 121°10'0 0.0
2017-Dec-11 13:28N 31°41' E 121°10'0 0.0
2017-Dec-11 12:58N 31°41' E 121°10'0 0.0
2017-Dec-11 11:28N 31°41' E 121°10'0 0.0
2017-Dec-11 10:46N 31°41' E 121°10'0 0.0
2017-Dec-11 10:16N 31°41' E 121°10'0 0.0
2017-Dec-11 09:58N 31°41' E 121°10'0 0.0
2017-Dec-11 09:22N 31°41' E 121°10'0 0.1
2017-Dec-11 08:28N 31°41' E 121°10'0 0.1
2017-Dec-11 07:43N 31°41' E 121°10'0 0.0
2017-Dec-11 07:22N 31°41' E 121°10'0 0.0
2017-Dec-11 06:22N 31°41' E 121°10'0 0.0
2017-Dec-11 04:52N 31°41' E 121°10'0 0.0
2017-Dec-11 04:28N 31°41' E 121°10'0 0.0
2017-Dec-11 03:58N 31°41' E 121°10'0 0.0
2017-Dec-11 03:22N 31°41' E 121°10'0 0.0
2017-Dec-11 02:52N 31°41' E 121°10'0 0.0
2017-Dec-11 02:28N 31°41' E 121°10'0 0.0
2017-Dec-11 01:46N 31°41' E 121°10'0 0.0
2017-Dec-11 01:28N 31°41' E 121°10'0 0.0
2017-Dec-11 00:34N 31°41' E 121°10'0 0.1
2017-Dec-11 00:28N 31°41' E 121°10'0 0.0
2017-Dec-10 23:46N 31°41' E 121°10'0 0.0
2017-Dec-10 23:28N 31°41' E 121°10'0 0.0
2017-Dec-10 22:52N 31°41' E 121°10'0 0.0
2017-Dec-10 22:28N 31°41' E 121°10'0 0.0
2017-Dec-10 21:40N 31°41' E 121°10'0 0.0
2017-Dec-10 21:22N 31°41' E 121°10'0 0.0
2017-Dec-10 20:40N 31°41' E 121°10'0 0.3
2017-Dec-10 20:28N 31°41' E 121°10'0 0.0
2017-Dec-10 19:46N 31°41' E 121°10'0 0.2
2017-Dec-10 19:28N 31°41' E 121°10'0 0.0
2017-Dec-10 18:58N 31°41' E 121°10'0 0.0
2017-Dec-10 18:22N 31°41' E 121°10'0 0.0
2017-Dec-10 17:40N 31°41' E 121°10'0 0.0
2017-Dec-10 16:16N 31°41' E 121°10'0 0.0
2017-Dec-10 15:52N 31°41' E 121°10'0 0.0
2017-Dec-10 15:28N 31°41' E 121°10'0 0.0
2017-Dec-10 14:10N 31°41' E 121°10'0 0.0
2017-Dec-10 13:10N 31°41' E 121°10'0 0.0
2017-Dec-10 12:38N 31°41' E 121°10'0 0.1
2017-Dec-10 12:29N 31°41' E 121°10'1 2.5
2017-Dec-10 11:57N 31°41' E 121°11'4 9.6
2017-Dec-10 11:30N 31°38' E 121°15'511.0
2017-Dec-10 11:00N 31°34' E 121°19'611.2
2017-Dec-10 10:29N 31°30' E 121°25'510.8
2017-Dec-10 09:59N 31°26' E 121°29'3 6.1
2017-Dec-10 09:30N 31°25' E 121°32'3 6.6
2017-Dec-10 09:00N 31°23' E 121°35'1710.0
2017-Dec-10 07:16N 31°16' E 121°54'310.8
2017-Dec-10 07:00N 31°15' E 121°57'510.7
2017-Dec-10 06:30N 31°14' E 122°03'510.4
2017-Dec-10 06:00N 31°12' E 122°09'510.5
2017-Dec-10 05:30N 31°09' E 122°14'510.2
2017-Dec-10 05:00N 31°06' E 122°19'510.2
2017-Dec-10 04:30N 31°06' E 122°25'4 6.4
2017-Dec-10 03:54N 31°07' E 122°29'2 5.2
2017-Dec-10 03:29N 31°08' E 122°31'  

Dump ship's entire track history